sensor_id;sensor_type;location;lat;lon;timestamp;P1;durP1;ratioP1;P2;durP2;ratioP2
18853;SDS011;9556;49.374;19.446;2022-08-21T00:02:14;35.80;;;17.63;;
18853;SDS011;9556;49.374;19.446;2022-08-21T00:04:41;40.50;;;19.20;;
18853;SDS011;9556;49.374;19.446;2022-08-21T00:07:08;42.63;;;18.90;;
18853;SDS011;9556;49.374;19.446;2022-08-21T00:09:35;38.63;;;18.50;;
18853;SDS011;9556;49.374;19.446;2022-08-21T00:12:03;38.40;;;19.10;;
18853;SDS011;9556;49.374;19.446;2022-08-21T00:14:31;39.43;;;19.53;;
18853;SDS011;9556;49.374;19.446;2022-08-21T00:16:58;42.87;;;18.73;;
18853;SDS011;9556;49.374;19.446;2022-08-21T00:19:27;35.40;;;18.87;;
18853;SDS011;9556;49.374;19.446;2022-08-21T00:21:54;37.37;;;17.93;;
18853;SDS011;9556;49.374;19.446;2022-08-21T00:24:22;41.20;;;19.03;;
18853;SDS011;9556;49.374;19.446;2022-08-21T00:26:49;34.53;;;18.30;;
18853;SDS011;9556;49.374;19.446;2022-08-21T00:29:17;35.90;;;16.83;;
18853;SDS011;9556;49.374;19.446;2022-08-21T00:31:44;40.67;;;17.23;;
18853;SDS011;9556;49.374;19.446;2022-08-21T00:34:12;41.53;;;16.87;;
18853;SDS011;9556;49.374;19.446;2022-08-21T00:36:41;32.70;;;17.43;;
18853;SDS011;9556;49.374;19.446;2022-08-21T00:39:08;33.30;;;16.70;;
18853;SDS011;9556;49.374;19.446;2022-08-21T00:41:36;37.73;;;17.60;;
18853;SDS011;9556;49.374;19.446;2022-08-21T00:44:04;42.43;;;18.77;;
18853;SDS011;9556;49.374;19.446;2022-08-21T00:46:31;39.47;;;18.33;;
18853;SDS011;9556;49.374;19.446;2022-08-21T00:48:59;46.17;;;18.20;;
18853;SDS011;9556;49.374;19.446;2022-08-21T00:51:28;45.10;;;19.77;;
18853;SDS011;9556;49.374;19.446;2022-08-21T00:54:01;42.03;;;19.07;;
18853;SDS011;9556;49.374;19.446;2022-08-21T00:56:28;42.53;;;19.03;;
18853;SDS011;9556;49.374;19.446;2022-08-21T00:58:56;37.73;;;19.00;;
18853;SDS011;9556;49.374;19.446;2022-08-21T01:01:25;40.30;;;18.83;;
18853;SDS011;9556;49.374;19.446;2022-08-21T01:03:52;41.83;;;19.00;;
18853;SDS011;9556;49.374;19.446;2022-08-21T01:06:19;37.87;;;17.93;;
18853;SDS011;9556;49.374;19.446;2022-08-21T01:08:46;38.87;;;18.47;;
18853;SDS011;9556;49.374;19.446;2022-08-21T01:11:15;39.93;;;19.03;;
18853;SDS011;9556;49.374;19.446;2022-08-21T01:13:42;36.13;;;18.57;;
18853;SDS011;9556;49.374;19.446;2022-08-21T01:16:11;35.07;;;18.03;;
18853;SDS011;9556;49.374;19.446;2022-08-21T01:18:40;35.77;;;19.23;;
18853;SDS011;9556;49.374;19.446;2022-08-21T01:21:09;38.73;;;19.63;;
18853;SDS011;9556;49.374;19.446;2022-08-21T01:23:38;38.00;;;19.43;;
18853;SDS011;9556;49.374;19.446;2022-08-21T01:26:05;42.60;;;18.60;;
18853;SDS011;9556;49.374;19.446;2022-08-21T01:28:34;35.30;;;17.87;;
18853;SDS011;9556;49.374;19.446;2022-08-21T01:31:03;36.73;;;19.40;;
18853;SDS011;9556;49.374;19.446;2022-08-21T01:33:32;37.83;;;18.50;;
18853;SDS011;9556;49.374;19.446;2022-08-21T01:35:59;45.97;;;18.83;;
18853;SDS011;9556;49.374;19.446;2022-08-21T01:38:28;37.50;;;19.27;;
18853;SDS011;9556;49.374;19.446;2022-08-21T01:40:56;33.40;;;18.03;;
18853;SDS011;9556;49.374;19.446;2022-08-21T01:43:23;34.87;;;18.13;;
18853;SDS011;9556;49.374;19.446;2022-08-21T01:45:50;32.87;;;17.93;;
18853;SDS011;9556;49.374;19.446;2022-08-21T01:48:17;37.83;;;19.07;;
18853;SDS011;9556;49.374;19.446;2022-08-21T01:50:44;38.40;;;18.60;;
18853;SDS011;9556;49.374;19.446;2022-08-21T01:53:11;34.40;;;17.77;;
18853;SDS011;9556;49.374;19.446;2022-08-21T01:55:41;40.77;;;18.30;;
18853;SDS011;9556;49.374;19.446;2022-08-21T01:58:08;41.73;;;18.43;;
18853;SDS011;9556;49.374;19.446;2022-08-21T02:00:35;44.50;;;18.00;;
18853;SDS011;9556;49.374;19.446;2022-08-21T02:03:03;42.33;;;18.50;;
18853;SDS011;9556;49.374;19.446;2022-08-21T02:05:30;35.40;;;18.93;;
18853;SDS011;9556;49.374;19.446;2022-08-21T02:07:58;42.63;;;19.50;;
18853;SDS011;9556;49.374;19.446;2022-08-21T02:10:26;46.47;;;19.10;;
18853;SDS011;9556;49.374;19.446;2022-08-21T02:12:54;44.27;;;19.63;;
18853;SDS011;9556;49.374;19.446;2022-08-21T02:15:22;39.87;;;19.00;;
18853;SDS011;9556;49.374;19.446;2022-08-21T02:17:50;36.13;;;17.90;;
18853;SDS011;9556;49.374;19.446;2022-08-21T02:20:19;33.47;;;18.77;;
18853;SDS011;9556;49.374;19.446;2022-08-21T02:22:47;31.57;;;17.87;;
18853;SDS011;9556;49.374;19.446;2022-08-21T02:25:15;31.40;;;17.47;;
18853;SDS011;9556;49.374;19.446;2022-08-21T02:27:43;31.57;;;17.40;;
18853;SDS011;9556;49.374;19.446;2022-08-21T02:30:14;31.87;;;17.07;;
18853;SDS011;9556;49.374;19.446;2022-08-21T02:32:41;39.23;;;18.13;;
18853;SDS011;9556;49.374;19.446;2022-08-21T02:35:09;39.00;;;18.73;;
18853;SDS011;9556;49.374;19.446;2022-08-21T02:37:42;40.70;;;19.83;;
18853;SDS011;9556;49.374;19.446;2022-08-21T02:40:09;41.33;;;19.97;;
18853;SDS011;9556;49.374;19.446;2022-08-21T02:42:37;40.67;;;20.63;;
18853;SDS011;9556;49.374;19.446;2022-08-21T02:45:05;38.73;;;20.07;;
18853;SDS011;9556;49.374;19.446;2022-08-21T02:47:34;39.07;;;19.50;;
18853;SDS011;9556;49.374;19.446;2022-08-21T02:50:01;48.20;;;24.13;;
18853;SDS011;9556;49.374;19.446;2022-08-21T02:52:28;46.33;;;23.23;;
18853;SDS011;9556;49.374;19.446;2022-08-21T02:54:55;50.07;;;24.70;;
18853;SDS011;9556;49.374;19.446;2022-08-21T02:57:22;54.70;;;24.97;;
18853;SDS011;9556;49.374;19.446;2022-08-21T02:59:50;56.90;;;27.10;;
18853;SDS011;9556;49.374;19.446;2022-08-21T03:02:17;64.70;;;28.50;;
18853;SDS011;9556;49.374;19.446;2022-08-21T03:04:45;54.87;;;27.57;;
18853;SDS011;9556;49.374;19.446;2022-08-21T03:07:12;61.80;;;28.07;;
18853;SDS011;9556;49.374;19.446;2022-08-21T03:09:40;54.17;;;27.27;;
18853;SDS011;9556;49.374;19.446;2022-08-21T03:12:07;52.90;;;26.37;;
18853;SDS011;9556;49.374;19.446;2022-08-21T03:14:34;49.53;;;24.67;;
18853;SDS011;9556;49.374;19.446;2022-08-21T03:17:03;50.73;;;24.83;;
18853;SDS011;9556;49.374;19.446;2022-08-21T03:19:30;47.17;;;23.17;;
18853;SDS011;9556;49.374;19.446;2022-08-21T03:21:59;46.30;;;24.07;;
18853;SDS011;9556;49.374;19.446;2022-08-21T03:24:26;45.03;;;23.40;;
18853;SDS011;9556;49.374;19.446;2022-08-21T03:26:53;44.27;;;22.63;;
18853;SDS011;9556;49.374;19.446;2022-08-21T03:29:20;51.87;;;23.33;;
18853;SDS011;9556;49.374;19.446;2022-08-21T03:31:47;41.20;;;22.37;;
18853;SDS011;9556;49.374;19.446;2022-08-21T03:34:14;43.43;;;23.53;;
18853;SDS011;9556;49.374;19.446;2022-08-21T03:36:41;45.17;;;23.57;;
18853;SDS011;9556;49.374;19.446;2022-08-21T03:39:10;38.60;;;21.80;;
18853;SDS011;9556;49.374;19.446;2022-08-21T03:41:37;50.17;;;22.07;;
18853;SDS011;9556;49.374;19.446;2022-08-21T03:44:04;44.13;;;23.57;;
18853;SDS011;9556;49.374;19.446;2022-08-21T03:46:31;39.30;;;23.30;;
18853;SDS011;9556;49.374;19.446;2022-08-21T03:48:59;42.93;;;23.17;;
18853;SDS011;9556;49.374;19.446;2022-08-21T03:51:26;41.20;;;22.33;;
18853;SDS011;9556;49.374;19.446;2022-08-21T03:53:53;39.30;;;22.10;;
18853;SDS011;9556;49.374;19.446;2022-08-21T03:56:22;37.67;;;21.73;;
18853;SDS011;9556;49.374;19.446;2022-08-21T03:58:49;36.83;;;21.23;;
18853;SDS011;9556;49.374;19.446;2022-08-21T04:01:16;37.03;;;20.60;;
18853;SDS011;9556;49.374;19.446;2022-08-21T04:03:43;40.03;;;20.57;;
18853;SDS011;9556;49.374;19.446;2022-08-21T04:06:10;38.83;;;22.57;;
18853;SDS011;9556;49.374;19.446;2022-08-21T04:08:37;45.03;;;23.40;;
18853;SDS011;9556;49.374;19.446;2022-08-21T04:11:08;37.07;;;21.53;;
18853;SDS011;9556;49.374;19.446;2022-08-21T04:13:37;36.93;;;21.93;;
18853;SDS011;9556;49.374;19.446;2022-08-21T04:16:05;39.43;;;21.67;;
18853;SDS011;9556;49.374;19.446;2022-08-21T04:18:32;37.23;;;21.37;;
18853;SDS011;9556;49.374;19.446;2022-08-21T04:20:59;34.63;;;20.47;;
18853;SDS011;9556;49.374;19.446;2022-08-21T04:23:28;39.00;;;21.67;;
18853;SDS011;9556;49.374;19.446;2022-08-21T04:25:55;38.77;;;21.87;;
18853;SDS011;9556;49.374;19.446;2022-08-21T04:28:23;35.73;;;21.17;;
18853;SDS011;9556;49.374;19.446;2022-08-21T04:30:52;32.97;;;20.73;;
18853;SDS011;9556;49.374;19.446;2022-08-21T04:33:19;36.00;;;20.73;;
18853;SDS011;9556;49.374;19.446;2022-08-21T04:35:46;31.37;;;19.53;;
18853;SDS011;9556;49.374;19.446;2022-08-21T04:38:14;39.10;;;20.23;;
18853;SDS011;9556;49.374;19.446;2022-08-21T04:40:41;35.03;;;20.70;;
18853;SDS011;9556;49.374;19.446;2022-08-21T04:43:08;33.73;;;19.47;;
18853;SDS011;9556;49.374;19.446;2022-08-21T04:45:37;34.90;;;19.57;;
18853;SDS011;9556;49.374;19.446;2022-08-21T04:48:07;32.93;;;19.63;;
18853;SDS011;9556;49.374;19.446;2022-08-21T04:50:36;34.77;;;19.87;;
18853;SDS011;9556;49.374;19.446;2022-08-21T04:53:04;34.60;;;18.00;;
18853;SDS011;9556;49.374;19.446;2022-08-21T04:55:31;28.50;;;18.87;;
18853;SDS011;9556;49.374;19.446;2022-08-21T04:57:59;32.27;;;18.43;;
18853;SDS011;9556;49.374;19.446;2022-08-21T05:00:26;27.47;;;18.67;;
18853;SDS011;9556;49.374;19.446;2022-08-21T05:02:54;31.23;;;17.97;;
18853;SDS011;9556;49.374;19.446;2022-08-21T05:05:25;32.47;;;19.10;;
18853;SDS011;9556;49.374;19.446;2022-08-21T05:07:53;33.63;;;18.88;;
18853;SDS011;9556;49.374;19.446;2022-08-21T05:10:21;26.77;;;18.47;;
18853;SDS011;9556;49.374;19.446;2022-08-21T05:12:48;34.53;;;18.77;;
18853;SDS011;9556;49.374;19.446;2022-08-21T05:15:15;31.33;;;18.47;;
18853;SDS011;9556;49.374;19.446;2022-08-21T05:17:43;30.53;;;19.53;;
18853;SDS011;9556;49.374;19.446;2022-08-21T05:20:10;33.07;;;18.40;;
18853;SDS011;9556;49.374;19.446;2022-08-21T05:22:39;30.03;;;19.37;;
18853;SDS011;9556;49.374;19.446;2022-08-21T05:25:07;33.87;;;18.90;;
18853;SDS011;9556;49.374;19.446;2022-08-21T05:27:34;33.60;;;19.80;;
18853;SDS011;9556;49.374;19.446;2022-08-21T05:30:02;34.43;;;19.47;;
18853;SDS011;9556;49.374;19.446;2022-08-21T05:32:30;33.57;;;19.33;;
18853;SDS011;9556;49.374;19.446;2022-08-21T05:34:57;32.40;;;18.23;;
18853;SDS011;9556;49.374;19.446;2022-08-21T05:37:24;33.47;;;16.77;;
18853;SDS011;9556;49.374;19.446;2022-08-21T05:39:52;26.25;;;16.85;;
18853;SDS011;9556;49.374;19.446;2022-08-21T05:42:19;27.52;;;16.63;;
18853;SDS011;9556;49.374;19.446;2022-08-21T05:44:46;30.45;;;16.40;;
18853;SDS011;9556;49.374;19.446;2022-08-21T05:47:14;30.47;;;16.87;;
18853;SDS011;9556;49.374;19.446;2022-08-21T05:49:41;27.40;;;16.58;;
18853;SDS011;9556;49.374;19.446;2022-08-21T05:52:08;29.23;;;17.10;;
18853;SDS011;9556;49.374;19.446;2022-08-21T05:54:36;29.70;;;16.20;;
18853;SDS011;9556;49.374;19.446;2022-08-21T05:57:04;25.17;;;16.43;;
18853;SDS011;9556;49.374;19.446;2022-08-21T05:59:33;26.00;;;16.30;;
18853;SDS011;9556;49.374;19.446;2022-08-21T06:02:01;31.90;;;15.52;;
18853;SDS011;9556;49.374;19.446;2022-08-21T06:04:28;24.05;;;15.55;;
18853;SDS011;9556;49.374;19.446;2022-08-21T06:06:55;24.88;;;15.50;;
18853;SDS011;9556;49.374;19.446;2022-08-21T06:09:23;22.73;;;14.63;;
18853;SDS011;9556;49.374;19.446;2022-08-21T06:11:50;31.23;;;15.43;;
18853;SDS011;9556;49.374;19.446;2022-08-21T06:14:18;24.48;;;14.50;;
18853;SDS011;9556;49.374;19.446;2022-08-21T06:16:45;26.23;;;15.32;;
18853;SDS011;9556;49.374;19.446;2022-08-21T06:19:12;25.75;;;16.05;;
18853;SDS011;9556;49.374;19.446;2022-08-21T06:21:39;24.35;;;16.08;;
18853;SDS011;9556;49.374;19.446;2022-08-21T06:24:06;26.83;;;16.42;;
18853;SDS011;9556;49.374;19.446;2022-08-21T06:26:34;26.98;;;15.77;;
18853;SDS011;9556;49.374;19.446;2022-08-21T06:29:02;28.92;;;15.98;;
18853;SDS011;9556;49.374;19.446;2022-08-21T06:31:30;27.58;;;16.75;;
18853;SDS011;9556;49.374;19.446;2022-08-21T06:33:57;26.15;;;16.70;;
18853;SDS011;9556;49.374;19.446;2022-08-21T06:36:24;25.95;;;15.88;;
18853;SDS011;9556;49.374;19.446;2022-08-21T06:38:51;25.88;;;16.85;;
18853;SDS011;9556;49.374;19.446;2022-08-21T06:41:18;27.15;;;16.95;;
18853;SDS011;9556;49.374;19.446;2022-08-21T06:43:46;29.00;;;17.52;;
18853;SDS011;9556;49.374;19.446;2022-08-21T06:46:13;23.88;;;17.10;;
18853;SDS011;9556;49.374;19.446;2022-08-21T06:48:42;26.60;;;16.92;;
18853;SDS011;9556;49.374;19.446;2022-08-21T06:51:09;28.42;;;16.38;;
18853;SDS011;9556;49.374;19.446;2022-08-21T06:53:36;27.65;;;17.20;;
18853;SDS011;9556;49.374;19.446;2022-08-21T06:56:03;27.40;;;17.27;;
18853;SDS011;9556;49.374;19.446;2022-08-21T06:58:31;27.40;;;16.38;;
18853;SDS011;9556;49.374;19.446;2022-08-21T07:00:58;27.52;;;16.65;;
18853;SDS011;9556;49.374;19.446;2022-08-21T07:03:27;21.92;;;16.50;;
18853;SDS011;9556;49.374;19.446;2022-08-21T07:05:55;23.48;;;16.20;;
18853;SDS011;9556;49.374;19.446;2022-08-21T07:08:23;25.42;;;16.70;;
18853;SDS011;9556;49.374;19.446;2022-08-21T07:10:51;25.27;;;16.63;;
18853;SDS011;9556;49.374;19.446;2022-08-21T07:13:18;26.75;;;16.63;;
18853;SDS011;9556;49.374;19.446;2022-08-21T07:15:46;21.80;;;16.45;;
18853;SDS011;9556;49.374;19.446;2022-08-21T07:18:13;28.27;;;16.80;;
18853;SDS011;9556;49.374;19.446;2022-08-21T07:20:40;29.00;;;16.27;;
18853;SDS011;9556;49.374;19.446;2022-08-21T07:23:11;28.73;;;15.88;;
18853;SDS011;9556;49.374;19.446;2022-08-21T07:25:39;23.48;;;16.00;;
18853;SDS011;9556;49.374;19.446;2022-08-21T07:28:06;23.77;;;15.75;;
18853;SDS011;9556;49.374;19.446;2022-08-21T07:30:33;24.38;;;13.88;;
18853;SDS011;9556;49.374;19.446;2022-08-21T07:33:00;25.42;;;15.25;;
18853;SDS011;9556;49.374;19.446;2022-08-21T07:35:27;23.42;;;13.57;;
18853;SDS011;9556;49.374;19.446;2022-08-21T07:37:56;20.13;;;13.20;;
18853;SDS011;9556;49.374;19.446;2022-08-21T07:40:24;20.95;;;13.38;;
18853;SDS011;9556;49.374;19.446;2022-08-21T07:42:52;26.42;;;13.00;;
18853;SDS011;9556;49.374;19.446;2022-08-21T07:45:19;23.10;;;13.35;;
18853;SDS011;9556;49.374;19.446;2022-08-21T07:47:47;27.17;;;13.30;;
18853;SDS011;9556;49.374;19.446;2022-08-21T07:50:14;20.35;;;12.90;;
18853;SDS011;9556;49.374;19.446;2022-08-21T07:52:42;20.85;;;12.88;;
18853;SDS011;9556;49.374;19.446;2022-08-21T07:55:10;23.90;;;13.60;;
18853;SDS011;9556;49.374;19.446;2022-08-21T07:57:40;20.13;;;13.90;;
18853;SDS011;9556;49.374;19.446;2022-08-21T08:00:09;23.85;;;14.02;;
18853;SDS011;9556;49.374;19.446;2022-08-21T08:02:36;22.67;;;13.73;;
18853;SDS011;9556;49.374;19.446;2022-08-21T08:05:04;20.42;;;13.48;;
18853;SDS011;9556;49.374;19.446;2022-08-21T08:07:32;24.20;;;14.05;;
18853;SDS011;9556;49.374;19.446;2022-08-21T08:09:59;21.90;;;14.52;;
18853;SDS011;9556;49.374;19.446;2022-08-21T08:12:26;18.88;;;13.45;;
18853;SDS011;9556;49.374;19.446;2022-08-21T08:14:56;25.05;;;13.65;;
18853;SDS011;9556;49.374;19.446;2022-08-21T08:17:23;22.13;;;14.07;;
18853;SDS011;9556;49.374;19.446;2022-08-21T08:19:50;29.17;;;14.95;;
18853;SDS011;9556;49.374;19.446;2022-08-21T08:22:18;24.50;;;13.57;;
18853;SDS011;9556;49.374;19.446;2022-08-21T08:24:47;20.38;;;13.00;;
18853;SDS011;9556;49.374;19.446;2022-08-21T08:27:14;19.60;;;13.45;;
18853;SDS011;9556;49.374;19.446;2022-08-21T08:29:41;25.52;;;14.63;;
18853;SDS011;9556;49.374;19.446;2022-08-21T08:32:09;25.00;;;14.75;;
18853;SDS011;9556;49.374;19.446;2022-08-21T08:34:37;27.20;;;14.68;;
18853;SDS011;9556;49.374;19.446;2022-08-21T08:37:05;24.85;;;16.05;;
18853;SDS011;9556;49.374;19.446;2022-08-21T08:39:32;25.30;;;15.27;;
18853;SDS011;9556;49.374;19.446;2022-08-21T08:42:01;30.58;;;15.75;;
18853;SDS011;9556;49.374;19.446;2022-08-21T08:44:30;23.95;;;15.80;;
18853;SDS011;9556;49.374;19.446;2022-08-21T08:46:58;30.40;;;16.45;;
18853;SDS011;9556;49.374;19.446;2022-08-21T08:49:29;30.33;;;16.17;;
18853;SDS011;9556;49.374;19.446;2022-08-21T08:52:02;30.35;;;16.17;;
18853;SDS011;9556;49.374;19.446;2022-08-21T08:54:31;29.90;;;15.73;;
18853;SDS011;9556;49.374;19.446;2022-08-21T08:56:59;30.25;;;15.85;;
18853;SDS011;9556;49.374;19.446;2022-08-21T08:59:27;29.77;;;15.68;;
18853;SDS011;9556;49.374;19.446;2022-08-21T09:01:56;29.13;;;16.05;;
18853;SDS011;9556;49.374;19.446;2022-08-21T09:04:24;27.60;;;16.58;;
18853;SDS011;9556;49.374;19.446;2022-08-21T09:06:57;28.77;;;16.75;;
18853;SDS011;9556;49.374;19.446;2022-08-21T09:09:33;30.50;;;15.65;;
18853;SDS011;9556;49.374;19.446;2022-08-21T09:12:02;20.55;;;13.75;;
18853;SDS011;9556;49.374;19.446;2022-08-21T09:14:36;23.45;;;13.93;;
18853;SDS011;9556;49.374;19.446;2022-08-21T09:17:09;22.73;;;14.55;;
18853;SDS011;9556;49.374;19.446;2022-08-21T09:19:44;23.05;;;13.88;;
18853;SDS011;9556;49.374;19.446;2022-08-21T09:22:19;26.52;;;14.70;;
18853;SDS011;9556;49.374;19.446;2022-08-21T09:24:51;24.55;;;14.60;;
18853;SDS011;9556;49.374;19.446;2022-08-21T09:27:22;25.85;;;14.95;;
18853;SDS011;9556;49.374;19.446;2022-08-21T09:29:52;26.80;;;15.70;;
18853;SDS011;9556;49.374;19.446;2022-08-21T09:32:23;20.92;;;13.68;;
18853;SDS011;9556;49.374;19.446;2022-08-21T09:34:55;21.60;;;14.57;;
18853;SDS011;9556;49.374;19.446;2022-08-21T09:37:24;25.15;;;14.73;;
18853;SDS011;9556;49.374;19.446;2022-08-21T09:39:51;24.80;;;15.43;;
18853;SDS011;9556;49.374;19.446;2022-08-21T09:42:21;24.58;;;15.65;;
18853;SDS011;9556;49.374;19.446;2022-08-21T09:45:00;25.70;;;14.63;;
18853;SDS011;9556;49.374;19.446;2022-08-21T09:47:30;24.08;;;14.05;;
18853;SDS011;9556;49.374;19.446;2022-08-21T09:50:06;18.67;;;11.40;;
18853;SDS011;9556;49.374;19.446;2022-08-21T09:52:41;16.88;;;10.82;;
18853;SDS011;9556;49.374;19.446;2022-08-21T09:55:13;21.10;;;8.90;;
18853;SDS011;9556;49.374;19.446;2022-08-21T09:58:02;15.30;;;7.80;;
18853;SDS011;9556;49.374;19.446;2022-08-21T10:00:29;12.18;;;7.13;;
18853;SDS011;9556;49.374;19.446;2022-08-21T10:03:07;12.10;;;6.50;;
18853;SDS011;9556;49.374;19.446;2022-08-21T10:05:34;10.73;;;6.88;;
18853;SDS011;9556;49.374;19.446;2022-08-21T10:08:03;9.02;;;6.30;;
18853;SDS011;9556;49.374;19.446;2022-08-21T10:10:31;8.80;;;5.70;;
18853;SDS011;9556;49.374;19.446;2022-08-21T10:13:00;8.48;;;5.78;;
18853;SDS011;9556;49.374;19.446;2022-08-21T10:15:31;7.45;;;5.07;;
18853;SDS011;9556;49.374;19.446;2022-08-21T10:18:06;9.50;;;6.05;;
18853;SDS011;9556;49.374;19.446;2022-08-21T10:20:37;8.10;;;5.47;;
18853;SDS011;9556;49.374;19.446;2022-08-21T10:23:11;8.38;;;5.68;;
18853;SDS011;9556;49.374;19.446;2022-08-21T10:25:44;10.38;;;5.75;;
18853;SDS011;9556;49.374;19.446;2022-08-21T10:28:16;8.68;;;5.75;;
18853;SDS011;9556;49.374;19.446;2022-08-21T10:30:47;6.60;;;4.40;;
18853;SDS011;9556;49.374;19.446;2022-08-21T10:33:20;7.95;;;4.90;;
18853;SDS011;9556;49.374;19.446;2022-08-21T10:35:50;8.52;;;4.68;;
18853;SDS011;9556;49.374;19.446;2022-08-21T10:38:45;7.88;;;4.55;;
18853;SDS011;9556;49.374;19.446;2022-08-21T10:41:15;7.05;;;4.78;;
18853;SDS011;9556;49.374;19.446;2022-08-21T10:43:45;8.40;;;4.60;;
18853;SDS011;9556;49.374;19.446;2022-08-21T10:46:16;5.60;;;3.75;;
18853;SDS011;9556;49.374;19.446;2022-08-21T10:48:46;4.90;;;3.17;;
18853;SDS011;9556;49.374;19.446;2022-08-21T10:51:16;4.45;;;3.15;;
18853;SDS011;9556;49.374;19.446;2022-08-21T10:53:47;3.75;;;2.70;;
18853;SDS011;9556;49.374;19.446;2022-08-21T10:56:18;2.75;;;2.35;;
18853;SDS011;9556;49.374;19.446;2022-08-21T10:58:49;3.65;;;2.35;;
18853;SDS011;9556;49.374;19.446;2022-08-21T11:01:17;3.70;;;1.85;;
18853;SDS011;9556;49.374;19.446;2022-08-21T11:03:47;3.63;;;1.60;;
18853;SDS011;9556;49.374;19.446;2022-08-21T11:06:18;2.70;;;2.00;;
18853;SDS011;9556;49.374;19.446;2022-08-21T11:08:50;1.80;;;1.50;;
18853;SDS011;9556;49.374;19.446;2022-08-21T11:11:20;1.98;;;1.50;;
18853;SDS011;9556;49.374;19.446;2022-08-21T11:13:50;2.40;;;1.40;;
18853;SDS011;9556;49.374;19.446;2022-08-21T11:16:20;1.35;;;1.17;;
18853;SDS011;9556;49.374;19.446;2022-08-21T11:18:49;2.50;;;1.33;;
18853;SDS011;9556;49.374;19.446;2022-08-21T11:21:29;2.97;;;1.60;;
18853;SDS011;9556;49.374;19.446;2022-08-21T11:23:59;1.45;;;1.30;;
18853;SDS011;9556;49.374;19.446;2022-08-21T11:26:29;4.43;;;1.70;;
18853;SDS011;9556;49.374;19.446;2022-08-21T11:28:59;2.15;;;1.52;;
18853;SDS011;9556;49.374;19.446;2022-08-21T11:31:32;5.53;;;1.75;;
18853;SDS011;9556;49.374;19.446;2022-08-21T11:34:05;9.38;;;2.00;;
18853;SDS011;9556;49.374;19.446;2022-08-21T11:36:37;6.30;;;1.70;;
18853;SDS011;9556;49.374;19.446;2022-08-21T11:39:10;5.10;;;1.90;;
18853;SDS011;9556;49.374;19.446;2022-08-21T11:41:41;6.65;;;2.40;;
18853;SDS011;9556;49.374;19.446;2022-08-21T11:44:11;2.83;;;1.83;;
18853;SDS011;9556;49.374;19.446;2022-08-21T11:46:44;4.88;;;2.20;;
18853;SDS011;9556;49.374;19.446;2022-08-21T11:49:21;4.53;;;2.22;;
18853;SDS011;9556;49.374;19.446;2022-08-21T11:51:51;7.85;;;2.30;;
18853;SDS011;9556;49.374;19.446;2022-08-21T11:54:23;4.28;;;2.20;;
18853;SDS011;9556;49.374;19.446;2022-08-21T11:56:53;8.48;;;4.10;;
18853;SDS011;9556;49.374;19.446;2022-08-21T11:59:23;3.85;;;1.95;;
18853;SDS011;9556;49.374;19.446;2022-08-21T12:01:50;6.10;;;2.38;;
18853;SDS011;9556;49.374;19.446;2022-08-21T12:04:20;7.65;;;2.08;;
18853;SDS011;9556;49.374;19.446;2022-08-21T12:06:49;7.72;;;1.60;;
18853;SDS011;9556;49.374;19.446;2022-08-21T12:09:30;4.17;;;2.13;;
18853;SDS011;9556;49.374;19.446;2022-08-21T12:12:00;4.67;;;2.47;;
18853;SDS011;9556;49.374;19.446;2022-08-21T12:14:35;5.53;;;2.50;;
18853;SDS011;9556;49.374;19.446;2022-08-21T12:17:03;6.37;;;2.40;;
18853;SDS011;9556;49.374;19.446;2022-08-21T12:19:31;10.10;;;2.40;;
18853;SDS011;9556;49.374;19.446;2022-08-21T12:22:08;6.93;;;2.20;;
18853;SDS011;9556;49.374;19.446;2022-08-21T12:24:39;5.90;;;2.53;;
18853;SDS011;9556;49.374;19.446;2022-08-21T12:27:13;7.40;;;2.40;;
18853;SDS011;9556;49.374;19.446;2022-08-21T12:29:45;6.23;;;2.80;;
18853;SDS011;9556;49.374;19.446;2022-08-21T12:32:20;7.30;;;2.83;;
18853;SDS011;9556;49.374;19.446;2022-08-21T12:34:49;7.97;;;2.90;;
18853;SDS011;9556;49.374;19.446;2022-08-21T12:37:30;4.93;;;2.57;;
18853;SDS011;9556;49.374;19.446;2022-08-21T12:40:03;6.60;;;2.50;;
18853;SDS011;9556;49.374;19.446;2022-08-21T12:42:33;6.13;;;2.27;;
18853;SDS011;9556;49.374;19.446;2022-08-21T12:45:06;11.13;;;2.80;;
18853;SDS011;9556;49.374;19.446;2022-08-21T12:47:43;6.30;;;2.60;;
18853;SDS011;9556;49.374;19.446;2022-08-21T12:50:13;6.43;;;3.13;;
18853;SDS011;9556;49.374;19.446;2022-08-21T12:52:41;5.53;;;2.83;;
18853;SDS011;9556;49.374;19.446;2022-08-21T12:55:13;7.43;;;3.20;;
18853;SDS011;9556;49.374;19.446;2022-08-21T12:57:42;7.97;;;3.10;;
18853;SDS011;9556;49.374;19.446;2022-08-21T13:00:10;5.97;;;2.90;;
18853;SDS011;9556;49.374;19.446;2022-08-21T13:02:38;8.73;;;4.20;;
18853;SDS011;9556;49.374;19.446;2022-08-21T13:05:11;5.90;;;3.40;;
18853;SDS011;9556;49.374;19.446;2022-08-21T13:07:42;7.17;;;3.40;;
18853;SDS011;9556;49.374;19.446;2022-08-21T13:10:14;9.07;;;5.17;;
18853;SDS011;9556;49.374;19.446;2022-08-21T13:12:43;8.20;;;4.30;;
18853;SDS011;9556;49.374;19.446;2022-08-21T13:15:10;9.03;;;4.50;;
18853;SDS011;9556;49.374;19.446;2022-08-21T13:17:40;8.30;;;3.93;;
18853;SDS011;9556;49.374;19.446;2022-08-21T13:20:09;7.33;;;4.10;;
18853;SDS011;9556;49.374;19.446;2022-08-21T13:22:40;6.13;;;3.50;;
18853;SDS011;9556;49.374;19.446;2022-08-21T13:25:09;7.40;;;3.77;;
18853;SDS011;9556;49.374;19.446;2022-08-21T13:27:37;7.10;;;4.10;;
18853;SDS011;9556;49.374;19.446;2022-08-21T13:30:10;10.93;;;5.30;;
18853;SDS011;9556;49.374;19.446;2022-08-21T13:32:40;12.87;;;4.70;;
18853;SDS011;9556;49.374;19.446;2022-08-21T13:35:09;8.30;;;4.27;;
18853;SDS011;9556;49.374;19.446;2022-08-21T13:37:37;18.47;;;5.03;;
18853;SDS011;9556;49.374;19.446;2022-08-21T13:40:06;15.70;;;5.37;;
18853;SDS011;9556;49.374;19.446;2022-08-21T13:42:34;20.93;;;5.40;;
18853;SDS011;9556;49.374;19.446;2022-08-21T13:45:02;6.83;;;4.20;;
18853;SDS011;9556;49.374;19.446;2022-08-21T13:47:30;8.13;;;3.80;;
18853;SDS011;9556;49.374;19.446;2022-08-21T13:49:57;4.83;;;2.40;;
18853;SDS011;9556;49.374;19.446;2022-08-21T13:52:25;3.20;;;2.30;;
18853;SDS011;9556;49.374;19.446;2022-08-21T13:54:54;4.27;;;2.70;;
18853;SDS011;9556;49.374;19.446;2022-08-21T13:57:25;5.37;;;3.07;;
18853;SDS011;9556;49.374;19.446;2022-08-21T13:59:52;9.60;;;4.10;;
18853;SDS011;9556;49.374;19.446;2022-08-21T14:02:22;7.63;;;4.13;;
18853;SDS011;9556;49.374;19.446;2022-08-21T14:04:51;11.63;;;4.37;;
18853;SDS011;9556;49.374;19.446;2022-08-21T14:07:19;18.17;;;4.63;;
18853;SDS011;9556;49.374;19.446;2022-08-21T14:09:47;13.43;;;4.63;;
18853;SDS011;9556;49.374;19.446;2022-08-21T14:12:15;9.63;;;4.27;;
18853;SDS011;9556;49.374;19.446;2022-08-21T14:14:42;15.47;;;5.13;;
18853;SDS011;9556;49.374;19.446;2022-08-21T14:17:10;14.47;;;4.80;;
18853;SDS011;9556;49.374;19.446;2022-08-21T14:19:41;7.20;;;3.90;;
18853;SDS011;9556;49.374;19.446;2022-08-21T14:22:21;12.40;;;4.90;;
18853;SDS011;9556;49.374;19.446;2022-08-21T14:24:49;6.50;;;3.47;;
18853;SDS011;9556;49.374;19.446;2022-08-21T14:27:17;8.03;;;4.30;;
18853;SDS011;9556;49.374;19.446;2022-08-21T14:29:44;7.23;;;3.73;;
18853;SDS011;9556;49.374;19.446;2022-08-21T14:32:14;8.10;;;4.47;;
18853;SDS011;9556;49.374;19.446;2022-08-21T14:34:43;12.77;;;4.47;;
18853;SDS011;9556;49.374;19.446;2022-08-21T14:37:10;11.83;;;5.60;;
18853;SDS011;9556;49.374;19.446;2022-08-21T14:39:37;271.13;;;90.63;;